sensor_id;sensor_type;location;lat;lon;timestamp;P1;durP1;ratioP1;P2;durP2;ratioP2
18677;SDS011;9469;51.114;13.914;2023-08-12T00:01:45;7.03;;;4.43;;
18677;SDS011;9469;51.114;13.914;2023-08-12T00:06:50;8.90;;;4.20;;
18677;SDS011;9469;51.114;13.914;2023-08-12T00:11:57;5.77;;;3.97;;
18677;SDS011;9469;51.114;13.914;2023-08-12T00:17:06;9.60;;;3.97;;
18677;SDS011;9469;51.114;13.914;2023-08-12T00:22:11;4.90;;;4.00;;
18677;SDS011;9469;51.114;13.914;2023-08-12T00:27:20;5.33;;;3.73;;
18677;SDS011;9469;51.114;13.914;2023-08-12T00:32:25;6.73;;;3.83;;
18677;SDS011;9469;51.114;13.914;2023-08-12T00:37:31;7.90;;;4.20;;
18677;SDS011;9469;51.114;13.914;2023-08-12T00:42:39;8.60;;;3.77;;
18677;SDS011;9469;51.114;13.914;2023-08-12T00:47:44;8.90;;;4.53;;
18677;SDS011;9469;51.114;13.914;2023-08-12T00:52:49;6.10;;;3.83;;
18677;SDS011;9469;51.114;13.914;2023-08-12T00:57:58;6.37;;;3.83;;
18677;SDS011;9469;51.114;13.914;2023-08-12T01:03:03;9.00;;;3.77;;
18677;SDS011;9469;51.114;13.914;2023-08-12T01:08:10;5.57;;;3.80;;
18677;SDS011;9469;51.114;13.914;2023-08-12T01:13:19;6.53;;;4.03;;
18677;SDS011;9469;51.114;13.914;2023-08-12T01:18:34;6.03;;;3.60;;
18677;SDS011;9469;51.114;13.914;2023-08-12T01:23:44;7.73;;;3.90;;
18677;SDS011;9469;51.114;13.914;2023-08-12T01:28:50;9.13;;;4.10;;
18677;SDS011;9469;51.114;13.914;2023-08-12T01:34:00;8.77;;;3.60;;
18677;SDS011;9469;51.114;13.914;2023-08-12T01:39:15;5.47;;;3.60;;
18677;SDS011;9469;51.114;13.914;2023-08-12T01:44:21;5.63;;;3.80;;
18677;SDS011;9469;51.114;13.914;2023-08-12T01:49:26;4.30;;;3.80;;
18677;SDS011;9469;51.114;13.914;2023-08-12T01:54:34;5.80;;;3.30;;
18677;SDS011;9469;51.114;13.914;2023-08-12T01:59:41;5.87;;;3.70;;
18677;SDS011;9469;51.114;13.914;2023-08-12T02:04:46;5.57;;;3.77;;
18677;SDS011;9469;51.114;13.914;2023-08-12T02:09:54;5.57;;;3.87;;
18677;SDS011;9469;51.114;13.914;2023-08-12T02:14:58;7.37;;;4.33;;
18677;SDS011;9469;51.114;13.914;2023-08-12T02:20:06;5.47;;;3.93;;
18677;SDS011;9469;51.114;13.914;2023-08-12T02:25:14;7.50;;;4.13;;
18677;SDS011;9469;51.114;13.914;2023-08-12T02:30:19;5.73;;;3.20;;
18677;SDS011;9469;51.114;13.914;2023-08-12T02:35:24;5.47;;;3.93;;
18677;SDS011;9469;51.114;13.914;2023-08-12T02:40:32;3.80;;;3.40;;
18677;SDS011;9469;51.114;13.914;2023-08-12T02:45:37;5.07;;;3.87;;
18677;SDS011;9469;51.114;13.914;2023-08-12T02:50:42;4.33;;;3.50;;
18677;SDS011;9469;51.114;13.914;2023-08-12T02:55:53;4.57;;;4.07;;
18677;SDS011;9469;51.114;13.914;2023-08-12T03:00:58;3.70;;;2.80;;
18677;SDS011;9469;51.114;13.914;2023-08-12T03:06:05;8.47;;;3.80;;
18677;SDS011;9469;51.114;13.914;2023-08-12T03:11:13;5.80;;;3.80;;
18677;SDS011;9469;51.114;13.914;2023-08-12T03:16:21;4.17;;;3.60;;
18677;SDS011;9469;51.114;13.914;2023-08-12T03:21:26;8.20;;;3.57;;
18677;SDS011;9469;51.114;13.914;2023-08-12T03:26:35;7.80;;;3.80;;
18677;SDS011;9469;51.114;13.914;2023-08-12T03:31:40;8.40;;;3.70;;
18677;SDS011;9469;51.114;13.914;2023-08-12T03:36:46;4.73;;;3.80;;
18677;SDS011;9469;51.114;13.914;2023-08-12T03:41:56;5.57;;;3.60;;
18677;SDS011;9469;51.114;13.914;2023-08-12T03:47:04;5.47;;;3.90;;
18677;SDS011;9469;51.114;13.914;2023-08-12T03:52:13;7.07;;;4.10;;
18677;SDS011;9469;51.114;13.914;2023-08-12T03:57:21;5.27;;;4.27;;
18677;SDS011;9469;51.114;13.914;2023-08-12T04:02:26;4.20;;;3.43;;
18677;SDS011;9469;51.114;13.914;2023-08-12T04:07:31;5.23;;;4.00;;
18677;SDS011;9469;51.114;13.914;2023-08-12T04:12:39;5.20;;;3.80;;
18677;SDS011;9469;51.114;13.914;2023-08-12T04:17:45;4.50;;;4.10;;
18677;SDS011;9469;51.114;13.914;2023-08-12T04:22:50;6.13;;;3.90;;
18677;SDS011;9469;51.114;13.914;2023-08-12T04:27:58;6.77;;;3.80;;
18677;SDS011;9469;51.114;13.914;2023-08-12T04:33:05;6.83;;;3.73;;
18677;SDS011;9469;51.114;13.914;2023-08-12T04:38:11;6.83;;;3.67;;
18677;SDS011;9469;51.114;13.914;2023-08-12T04:43:20;6.43;;;3.50;;
18677;SDS011;9469;51.114;13.914;2023-08-12T04:48:26;7.73;;;3.80;;
18677;SDS011;9469;51.114;13.914;2023-08-12T04:53:31;9.13;;;4.30;;
18677;SDS011;9469;51.114;13.914;2023-08-12T04:58:42;9.23;;;3.67;;
18677;SDS011;9469;51.114;13.914;2023-08-12T05:03:48;6.10;;;3.53;;
18677;SDS011;9469;51.114;13.914;2023-08-12T05:08:56;7.30;;;3.53;;
18677;SDS011;9469;51.114;13.914;2023-08-12T05:14:05;5.33;;;3.47;;
18677;SDS011;9469;51.114;13.914;2023-08-12T05:19:11;6.30;;;3.20;;
18677;SDS011;9469;51.114;13.914;2023-08-12T05:24:16;4.33;;;3.20;;
18677;SDS011;9469;51.114;13.914;2023-08-12T05:29:24;3.83;;;3.17;;
18677;SDS011;9469;51.114;13.914;2023-08-12T05:34:29;5.40;;;3.60;;
18677;SDS011;9469;51.114;13.914;2023-08-12T05:39:34;7.20;;;2.93;;
18677;SDS011;9469;51.114;13.914;2023-08-12T05:44:42;3.87;;;2.93;;
18677;SDS011;9469;51.114;13.914;2023-08-12T05:49:47;6.20;;;3.60;;
18677;SDS011;9469;51.114;13.914;2023-08-12T05:54:52;7.00;;;3.13;;
18677;SDS011;9469;51.114;13.914;2023-08-12T06:00:00;5.70;;;3.03;;
18677;SDS011;9469;51.114;13.914;2023-08-12T06:05:11;4.60;;;3.13;;
18677;SDS011;9469;51.114;13.914;2023-08-12T06:10:17;3.47;;;2.87;;
18677;SDS011;9469;51.114;13.914;2023-08-12T06:15:25;5.23;;;3.10;;
18677;SDS011;9469;51.114;13.914;2023-08-12T06:20:30;4.43;;;3.07;;
18677;SDS011;9469;51.114;13.914;2023-08-12T06:25:36;4.83;;;2.60;;
18677;SDS011;9469;51.114;13.914;2023-08-12T06:30:46;5.63;;;2.97;;
18677;SDS011;9469;51.114;13.914;2023-08-12T06:35:52;6.57;;;2.57;;
18677;SDS011;9469;51.114;13.914;2023-08-12T06:40:57;3.30;;;2.40;;
18677;SDS011;9469;51.114;13.914;2023-08-12T06:46:05;3.95;;;2.75;;
18677;SDS011;9469;51.114;13.914;2023-08-12T06:51:11;6.78;;;2.63;;
18677;SDS011;9469;51.114;13.914;2023-08-12T06:56:16;4.68;;;2.83;;
18677;SDS011;9469;51.114;13.914;2023-08-12T07:01:24;3.40;;;2.90;;
18677;SDS011;9469;51.114;13.914;2023-08-12T07:06:30;3.72;;;2.72;;
18677;SDS011;9469;51.114;13.914;2023-08-12T07:11:35;3.00;;;2.60;;
18677;SDS011;9469;51.114;13.914;2023-08-12T07:16:43;6.72;;;2.65;;
18677;SDS011;9469;51.114;13.914;2023-08-12T07:21:48;7.03;;;3.00;;
18677;SDS011;9469;51.114;13.914;2023-08-12T07:26:53;4.25;;;2.55;;
18677;SDS011;9469;51.114;13.914;2023-08-12T07:32:01;4.78;;;2.90;;
18677;SDS011;9469;51.114;13.914;2023-08-12T07:37:06;5.18;;;2.72;;
18677;SDS011;9469;51.114;13.914;2023-08-12T07:42:11;4.78;;;2.70;;
18677;SDS011;9469;51.114;13.914;2023-08-12T07:47:19;4.00;;;2.60;;
18677;SDS011;9469;51.114;13.914;2023-08-12T07:52:24;3.42;;;2.90;;
18677;SDS011;9469;51.114;13.914;2023-08-12T07:57:29;4.65;;;2.30;;
18677;SDS011;9469;51.114;13.914;2023-08-12T08:02:37;5.43;;;2.47;;
18677;SDS011;9469;51.114;13.914;2023-08-12T08:07:42;7.13;;;2.97;;
18677;SDS011;9469;51.114;13.914;2023-08-12T08:12:47;4.18;;;2.80;;
18677;SDS011;9469;51.114;13.914;2023-08-12T08:17:55;3.25;;;2.72;;
18677;SDS011;9469;51.114;13.914;2023-08-12T08:23:03;4.55;;;3.10;;
18677;SDS011;9469;51.114;13.914;2023-08-12T08:28:08;4.32;;;2.88;;
18677;SDS011;9469;51.114;13.914;2023-08-12T08:33:18;4.80;;;2.47;;
18677;SDS011;9469;51.114;13.914;2023-08-12T08:38:23;3.25;;;2.45;;
18677;SDS011;9469;51.114;13.914;2023-08-12T08:43:28;6.32;;;3.20;;
18677;SDS011;9469;51.114;13.914;2023-08-12T08:48:36;3.30;;;2.72;;
18677;SDS011;9469;51.114;13.914;2023-08-12T08:53:42;3.15;;;2.85;;
18677;SDS011;9469;51.114;13.914;2023-08-12T08:58:48;3.28;;;2.75;;
18677;SDS011;9469;51.114;13.914;2023-08-12T09:03:55;6.40;;;2.50;;
18677;SDS011;9469;51.114;13.914;2023-08-12T09:09:02;5.25;;;2.30;;
18677;SDS011;9469;51.114;13.914;2023-08-12T09:14:10;4.18;;;2.83;;
18677;SDS011;9469;51.114;13.914;2023-08-12T09:19:18;3.33;;;2.33;;
18677;SDS011;9469;51.114;13.914;2023-08-12T09:24:23;3.75;;;2.38;;
18677;SDS011;9469;51.114;13.914;2023-08-12T09:29:29;5.32;;;2.60;;
18677;SDS011;9469;51.114;13.914;2023-08-12T09:34:38;3.13;;;2.25;;
18677;SDS011;9469;51.114;13.914;2023-08-12T09:39:50;2.05;;;1.88;;
18677;SDS011;9469;51.114;13.914;2023-08-12T09:44:56;2.83;;;1.80;;
18677;SDS011;9469;51.114;13.914;2023-08-12T09:50:04;3.38;;;2.20;;
18677;SDS011;9469;51.114;13.914;2023-08-12T09:55:10;2.35;;;2.00;;
18677;SDS011;9469;51.114;13.914;2023-08-12T10:00:16;3.30;;;2.20;;
18677;SDS011;9469;51.114;13.914;2023-08-12T10:05:28;5.13;;;2.42;;
18677;SDS011;9469;51.114;13.914;2023-08-12T10:10:38;2.13;;;1.65;;
18677;SDS011;9469;51.114;13.914;2023-08-12T10:15:46;2.65;;;2.05;;
18677;SDS011;9469;51.114;13.914;2023-08-12T10:20:58;5.10;;;1.98;;
18677;SDS011;9469;51.114;13.914;2023-08-12T10:26:05;2.58;;;1.60;;
18677;SDS011;9469;51.114;13.914;2023-08-12T10:31:13;2.05;;;1.50;;
18677;SDS011;9469;51.114;13.914;2023-08-12T10:36:21;2.17;;;1.50;;
18677;SDS011;9469;51.114;13.914;2023-08-12T10:41:26;3.45;;;1.75;;
18677;SDS011;9469;51.114;13.914;2023-08-12T10:46:35;1.83;;;1.40;;
18677;SDS011;9469;51.114;13.914;2023-08-12T10:51:50;1.67;;;1.50;;
18677;SDS011;9469;51.114;13.914;2023-08-12T10:57:06;1.88;;;1.55;;
18677;SDS011;9469;51.114;13.914;2023-08-12T11:02:18;4.47;;;1.80;;
18677;SDS011;9469;51.114;13.914;2023-08-12T11:07:37;1.92;;;1.50;;
18677;SDS011;9469;51.114;13.914;2023-08-12T11:12:47;3.67;;;1.90;;
18677;SDS011;9469;51.114;13.914;2023-08-12T11:17:59;4.15;;;2.22;;
18677;SDS011;9469;51.114;13.914;2023-08-12T11:23:14;3.88;;;1.90;;
18677;SDS011;9469;51.114;13.914;2023-08-12T11:28:19;2.42;;;1.95;;
18677;SDS011;9469;51.114;13.914;2023-08-12T11:33:25;5.03;;;2.00;;
18677;SDS011;9469;51.114;13.914;2023-08-12T11:38:33;3.10;;;1.90;;
18677;SDS011;9469;51.114;13.914;2023-08-12T11:43:41;3.42;;;1.60;;
18677;SDS011;9469;51.114;13.914;2023-08-12T11:48:50;2.70;;;1.83;;
18677;SDS011;9469;51.114;13.914;2023-08-12T11:53:58;6.45;;;2.20;;
18677;SDS011;9469;51.114;13.914;2023-08-12T11:59:03;3.60;;;2.08;;
18677;SDS011;9469;51.114;13.914;2023-08-12T12:04:10;4.15;;;2.60;;
18677;SDS011;9469;51.114;13.914;2023-08-12T12:09:18;5.05;;;2.67;;
18677;SDS011;9469;51.114;13.914;2023-08-12T12:14:25;3.47;;;2.45;;
18677;SDS011;9469;51.114;13.914;2023-08-12T12:19:30;3.03;;;2.03;;
18677;SDS011;9469;51.114;13.914;2023-08-12T12:24:46;4.70;;;2.08;;
18677;SDS011;9469;51.114;13.914;2023-08-12T12:29:51;3.67;;;1.90;;
18677;SDS011;9469;51.114;13.914;2023-08-12T12:34:57;3.17;;;2.10;;
18677;SDS011;9469;51.114;13.914;2023-08-12T12:40:05;3.50;;;2.00;;
18677;SDS011;9469;51.114;13.914;2023-08-12T12:45:11;2.35;;;2.15;;
18677;SDS011;9469;51.114;13.914;2023-08-12T12:50:17;2.72;;;2.30;;
18677;SDS011;9469;51.114;13.914;2023-08-12T12:55:24;2.58;;;2.28;;
18677;SDS011;9469;51.114;13.914;2023-08-12T13:00:30;4.25;;;2.38;;
18677;SDS011;9469;51.114;13.914;2023-08-12T13:05:37;2.75;;;2.40;;
18677;SDS011;9469;51.114;13.914;2023-08-12T13:10:47;5.18;;;2.70;;
18677;SDS011;9469;51.114;13.914;2023-08-12T13:15:52;2.72;;;2.15;;
18677;SDS011;9469;51.114;13.914;2023-08-12T13:20:58;5.72;;;2.33;;
18677;SDS011;9469;51.114;13.914;2023-08-12T13:26:05;3.90;;;2.38;;
18677;SDS011;9469;51.114;13.914;2023-08-12T13:31:11;9.57;;;2.80;;
18677;SDS011;9469;51.114;13.914;2023-08-12T13:36:20;7.95;;;2.50;;
18677;SDS011;9469;51.114;13.914;2023-08-12T13:41:28;7.30;;;2.95;;
18677;SDS011;9469;51.114;13.914;2023-08-12T13:46:33;5.45;;;2.85;;
18677;SDS011;9469;51.114;13.914;2023-08-12T13:51:38;6.25;;;2.67;;
18677;SDS011;9469;51.114;13.914;2023-08-12T13:56:46;3.17;;;2.40;;
18677;SDS011;9469;51.114;13.914;2023-08-12T14:01:51;3.22;;;2.70;;
18677;SDS011;9469;51.114;13.914;2023-08-12T14:06:56;4.53;;;2.30;;
18677;SDS011;9469;51.114;13.914;2023-08-12T14:12:04;4.82;;;2.83;;
18677;SDS011;9469;51.114;13.914;2023-08-12T14:17:10;2.90;;;2.50;;
18677;SDS011;9469;51.114;13.914;2023-08-12T14:22:18;2.47;;;2.25;;
18677;SDS011;9469;51.114;13.914;2023-08-12T14:27:26;3.17;;;2.55;;
18677;SDS011;9469;51.114;13.914;2023-08-12T14:32:31;3.95;;;2.50;;
18677;SDS011;9469;51.114;13.914;2023-08-12T14:37:36;2.70;;;2.50;;
18677;SDS011;9469;51.114;13.914;2023-08-12T14:42:44;3.17;;;2.22;;
18677;SDS011;9469;51.114;13.914;2023-08-12T14:47:49;2.75;;;2.30;;
18677;SDS011;9469;51.114;13.914;2023-08-12T14:52:55;4.22;;;2.42;;
18677;SDS011;9469;51.114;13.914;2023-08-12T14:58:02;2.70;;;2.03;;
18677;SDS011;9469;51.114;13.914;2023-08-12T15:03:11;3.50;;;2.80;;
18677;SDS011;9469;51.114;13.914;2023-08-12T15:08:17;3.03;;;2.25;;
18677;SDS011;9469;51.114;13.914;2023-08-12T15:13:25;5.30;;;2.63;;
18677;SDS011;9469;51.114;13.914;2023-08-12T15:18:31;7.00;;;2.58;;
18677;SDS011;9469;51.114;13.914;2023-08-12T15:23:36;3.53;;;2.65;;
18677;SDS011;9469;51.114;13.914;2023-08-12T15:28:43;3.08;;;1.83;;
18677;SDS011;9469;51.114;13.914;2023-08-12T15:33:48;4.53;;;2.30;;
18677;SDS011;9469;51.114;13.914;2023-08-12T15:38:54;2.65;;;2.15;;
18677;SDS011;9469;51.114;13.914;2023-08-12T15:44:04;3.50;;;2.15;;
18677;SDS011;9469;51.114;13.914;2023-08-12T15:49:09;4.57;;;2.28;;
18677;SDS011;9469;51.114;13.914;2023-08-12T15:54:14;3.53;;;2.42;;
18677;SDS011;9469;51.114;13.914;2023-08-12T15:59:22;3.45;;;1.88;;
18677;SDS011;9469;51.114;13.914;2023-08-12T16:04:27;5.15;;;2.17;;
18677;SDS011;9469;51.114;13.914;2023-08-12T16:09:33;3.05;;;2.15;;
18677;SDS011;9469;51.114;13.914;2023-08-12T16:14:40;7.18;;;2.33;;
18677;SDS011;9469;51.114;13.914;2023-08-12T16:19:46;6.50;;;2.65;;
18677;SDS011;9469;51.114;13.914;2023-08-12T16:24:51;4.45;;;2.60;;
18677;SDS011;9469;51.114;13.914;2023-08-12T16:30:00;4.82;;;2.00;;
18677;SDS011;9469;51.114;13.914;2023-08-12T16:35:08;4.22;;;2.47;;
18677;SDS011;9469;51.114;13.914;2023-08-12T16:40:15;7.32;;;2.50;;
18677;SDS011;9469;51.114;13.914;2023-08-12T16:45:24;4.70;;;2.45;;
18677;SDS011;9469;51.114;13.914;2023-08-12T16:50:30;4.25;;;2.45;;
18677;SDS011;9469;51.114;13.914;2023-08-12T16:55:35;4.68;;;2.60;;
18677;SDS011;9469;51.114;13.914;2023-08-12T17:00:43;4.80;;;3.05;;
18677;SDS011;9469;51.114;13.914;2023-08-12T17:05:50;6.60;;;2.92;;
18677;SDS011;9469;51.114;13.914;2023-08-12T17:10:55;9.80;;;2.92;;
18677;SDS011;9469;51.114;13.914;2023-08-12T17:16:03;8.07;;;2.13;;
18677;SDS011;9469;51.114;13.914;2023-08-12T17:21:08;7.15;;;2.00;;
18677;SDS011;9469;51.114;13.914;2023-08-12T17:26:13;5.05;;;2.30;;
18677;SDS011;9469;51.114;13.914;2023-08-12T17:31:21;4.32;;;2.05;;
18677;SDS011;9469;51.114;13.914;2023-08-12T17:36:27;2.60;;;2.13;;
18677;SDS011;9469;51.114;13.914;2023-08-12T17:41:34;2.53;;;2.08;;
18677;SDS011;9469;51.114;13.914;2023-08-12T17:46:43;2.88;;;2.58;;
18677;SDS011;9469;51.114;13.914;2023-08-12T17:51:50;3.70;;;2.38;;
18677;SDS011;9469;51.114;13.914;2023-08-12T17:56:57;9.13;;;2.40;;
18677;SDS011;9469;51.114;13.914;2023-08-12T18:02:05;3.50;;;2.20;;
18677;SDS011;9469;51.114;13.914;2023-08-12T18:07:12;4.38;;;2.63;;
18677;SDS011;9469;51.114;13.914;2023-08-12T18:12:17;4.50;;;2.45;;
18677;SDS011;9469;51.114;13.914;2023-08-12T18:17:25;4.78;;;2.58;;
18677;SDS011;9469;51.114;13.914;2023-08-12T18:22:30;4.45;;;2.83;;
18677;SDS011;9469;51.114;13.914;2023-08-12T18:27:35;5.03;;;2.72;;
18677;SDS011;9469;51.114;13.914;2023-08-12T18:32:45;5.00;;;2.75;;
18677;SDS011;9469;51.114;13.914;2023-08-12T18:37:50;5.67;;;2.87;;
18677;SDS011;9469;51.114;13.914;2023-08-12T18:42:55;4.87;;;3.13;;
18677;SDS011;9469;51.114;13.914;2023-08-12T18:48:04;5.70;;;2.75;;
18677;SDS011;9469;51.114;13.914;2023-08-12T18:53:09;6.43;;;3.05;;
18677;SDS011;9469;51.114;13.914;2023-08-12T18:58:14;8.03;;;3.50;;
18677;SDS011;9469;51.114;13.914;2023-08-12T19:03:22;3.30;;;2.80;;
18677;SDS011;9469;51.114;13.914;2023-08-12T19:08:28;3.30;;;2.70;;
18677;SDS011;9469;51.114;13.914;2023-08-12T19:13:33;4.70;;;3.00;;
18677;SDS011;9469;51.114;13.914;2023-08-12T19:18:42;6.60;;;2.83;;
18677;SDS011;9469;51.114;13.914;2023-08-12T19:23:47;3.80;;;2.43;;
18677;SDS011;9469;51.114;13.914;2023-08-12T19:28:54;3.70;;;2.57;;
18677;SDS011;9469;51.114;13.914;2023-08-12T19:34:03;4.23;;;2.63;;
18677;SDS011;9469;51.114;13.914;2023-08-12T19:39:11;3.10;;;2.40;;
18677;SDS011;9469;51.114;13.914;2023-08-12T19:44:16;3.77;;;2.03;;
18677;SDS011;9469;51.114;13.914;2023-08-12T19:49:24;3.13;;;1.87;;
18677;SDS011;9469;51.114;13.914;2023-08-12T19:54:31;4.63;;;2.40;;
18677;SDS011;9469;51.114;13.914;2023-08-12T19:59:39;3.80;;;2.50;;
18677;SDS011;9469;51.114;13.914;2023-08-12T20:04:47;3.47;;;2.43;;
18677;SDS011;9469;51.114;13.914;2023-08-12T20:09:53;4.23;;;2.20;;
18677;SDS011;9469;51.114;13.914;2023-08-12T20:15:00;3.97;;;2.17;;
18677;SDS011;9469;51.114;13.914;2023-08-12T20:20:11;3.47;;;2.30;;
18677;SDS011;9469;51.114;13.914;2023-08-12T20:25:22;3.43;;;2.43;;
18677;SDS011;9469;51.114;13.914;2023-08-12T20:30:27;3.17;;;2.20;;
18677;SDS011;9469;51.114;13.914;2023-08-12T20:35:36;3.90;;;1.90;;
18677;SDS011;9469;51.114;13.914;2023-08-12T20:40:43;3.60;;;2.07;;
18677;SDS011;9469;51.114;13.914;2023-08-12T20:45:51;3.97;;;1.93;;
18677;SDS011;9469;51.114;13.914;2023-08-12T20:51:00;2.13;;;1.60;;
18677;SDS011;9469;51.114;13.914;2023-08-12T20:56:12;3.17;;;1.67;;
18677;SDS011;9469;51.114;13.914;2023-08-12T21:01:17;2.03;;;1.80;;
18677;SDS011;9469;51.114;13.914;2023-08-12T21:06:28;2.27;;;1.63;;
18677;SDS011;9469;51.114;13.914;2023-08-12T21:11:34;2.90;;;1.90;;
18677;SDS011;9469;51.114;13.914;2023-08-12T21:16:39;2.43;;;1.50;;
18677;SDS011;9469;51.114;13.914;2023-08-12T21:21:47;4.03;;;1.77;;
18677;SDS011;9469;51.114;13.914;2023-08-12T21:26:52;2.27;;;1.50;;
18677;SDS011;9469;51.114;13.914;2023-08-12T21:31:57;1.50;;;1.40;;
18677;SDS011;9469;51.114;13.914;2023-08-12T21:37:05;2.43;;;1.87;;
18677;SDS011;9469;51.114;13.914;2023-08-12T21:42:13;2.17;;;1.57;;
18677;SDS011;9469;51.114;13.914;2023-08-12T21:47:18;1.60;;;1.37;;
18677;SDS011;9469;51.114;13.914;2023-08-12T21:52:26;2.30;;;1.07;;
18677;SDS011;9469;51.114;13.914;2023-08-12T21:57:31;2.70;;;1.20;;
18677;SDS011;9469;51.114;13.914;2023-08-12T22:02:36;2.03;;;1.40;;
18677;SDS011;9469;51.114;13.914;2023-08-12T22:07:44;3.10;;;1.40;;
18677;SDS011;9469;51.114;13.914;2023-08-12T22:12:49;1.73;;;1.30;;
18677;SDS011;9469;51.114;13.914;2023-08-12T22:17:55;2.87;;;1.70;;
18677;SDS011;9469;51.114;13.914;2023-08-12T22:23:05;2.00;;;1.33;;
18677;SDS011;9469;51.114;13.914;2023-08-12T22:28:11;2.77;;;1.30;;
18677;SDS011;9469;51.114;13.914;2023-08-12T22:33:19;1.70;;;1.50;;
18677;SDS011;9469;51.114;13.914;2023-08-12T22:38:26;1.93;;;1.40;;
18677;SDS011;9469;51.114;13.914;2023-08-12T22:43:31;2.50;;;1.47;;
18677;SDS011;9469;51.114;13.914;2023-08-12T22:48:37;2.23;;;1.63;;
18677;SDS011;9469;51.114;13.914;2023-08-12T22:53:46;3.13;;;1.50;;
18677;SDS011;9469;51.114;13.914;2023-08-12T22:58:52;2.50;;;1.60;;
18677;SDS011;9469;51.114;13.914;2023-08-12T23:04:01;3.07;;;1.63;;
18677;SDS011;9469;51.114;13.914;2023-08-12T23:09:11;3.13;;;1.77;;
18677;SDS011;9469;51.114;13.914;2023-08-12T23:14:16;2.97;;;1.70;;
18677;SDS011;9469;51.114;13.914;2023-08-12T23:19:22;2.57;;;1.50;;
18677;SDS011;9469;51.114;13.914;2023-08-12T23:24:29;3.00;;;1.90;;
18677;SDS011;9469;51.114;13.914;2023-08-12T23:29:36;3.93;;;1.40;;
18677;SDS011;9469;51.114;13.914;2023-08-12T23:34:41;2.30;;;1.70;;
18677;SDS011;9469;51.114;13.914;2023-08-12T23:39:49;2.33;;;1.83;;
18677;SDS011;9469;51.114;13.914;2023-08-12T23:44:57;3.57;;;1.47;;
18677;SDS011;9469;51.114;13.914;2023-08-12T23:50:02;8.20;;;2.00;;
18677;SDS011;9469;51.114;13.914;2023-08-12T23:55:10;3.10;;;1.57;;
